createdAt,value
2023-02-15T00:01:57.436Z,4.65
2023-02-15T00:04:46.892Z,4.66
2023-02-15T00:07:20.563Z,4.59
2023-02-15T00:09:49.845Z,4.59
2023-02-15T00:12:18.806Z,4.62
2023-02-15T00:14:47.581Z,4.61
2023-02-15T00:17:16.646Z,4.57
2023-02-15T00:19:45.549Z,4.49
2023-02-15T00:22:14.352Z,4.30
2023-02-15T00:24:43.463Z,4.19
2023-02-15T00:27:12.214Z,4.03
2023-02-15T00:29:41.250Z,3.90
2023-02-15T00:32:10.767Z,3.89
2023-02-15T00:34:40.362Z,3.92
2023-02-15T00:37:09.162Z,3.99
2023-02-15T00:39:38.009Z,4.03
2023-02-15T00:42:07.232Z,4.06
2023-02-15T00:44:36.353Z,4.10
2023-02-15T00:47:05.181Z,4.17
2023-02-15T00:49:34.311Z,4.18
2023-02-15T00:52:03.137Z,4.13
2023-02-15T00:54:32.036Z,4.15
2023-02-15T00:57:01.284Z,4.18
2023-02-15T00:59:30.145Z,4.13
2023-02-15T01:01:59.754Z,4.03
2023-02-15T01:04:28.950Z,3.91
2023-02-15T01:06:58.432Z,3.85
2023-02-15T01:09:27.402Z,3.84
2023-02-15T01:11:56.452Z,3.86
2023-02-15T01:14:25.164Z,3.87
2023-02-15T01:16:53.860Z,3.81
2023-02-15T01:19:23.120Z,3.74
2023-02-15T01:21:51.761Z,3.66
2023-02-15T01:24:20.782Z,3.63
2023-02-15T01:26:49.347Z,3.56
2023-02-15T01:29:18.033Z,3.51
2023-02-15T01:31:47.017Z,3.50
2023-02-15T01:34:15.812Z,3.51
2023-02-15T01:36:44.592Z,3.46
2023-02-15T01:39:13.367Z,3.44
2023-02-15T01:41:42.045Z,3.37
2023-02-15T01:44:50.386Z,3.38
2023-02-15T01:47:36.081Z,3.25
2023-02-15T01:50:26.809Z,3.03
2023-02-15T01:53:02.461Z,2.87
2023-02-15T01:55:37.790Z,2.77
2023-02-15T01:58:08.107Z,2.71
2023-02-15T02:00:36.850Z,2.72
2023-02-15T02:03:05.849Z,2.80
2023-02-15T02:05:34.982Z,2.83
2023-02-15T02:08:04.951Z,2.88
2023-02-15T02:10:33.952Z,2.82
2023-02-15T02:13:06.683Z,2.71
2023-02-15T02:16:06.696Z,2.59
2023-02-15T02:19:07.624Z,2.45
2023-02-15T02:21:43.076Z,2.43
2023-02-15T02:24:49.712Z,2.40
2023-02-15T02:27:31.608Z,2.24
2023-02-15T02:30:40.270Z,2.19
2023-02-15T02:33:27.327Z,2.05
2023-02-15T02:36:22.259Z,2.03
2023-02-15T02:39:23.253Z,1.98
2023-02-15T02:42:02.669Z,1.97
2023-02-15T02:44:46.738Z,2.05
2023-02-15T02:47:29.299Z,2.12
2023-02-15T02:50:05.065Z,2.27
2023-02-15T02:52:51.925Z,2.32
2023-02-15T02:55:32.903Z,2.34
2023-02-15T02:58:04.362Z,2.23
2023-02-15T03:00:41.636Z,2.22
2023-02-15T03:03:39.340Z,2.18
2023-02-15T03:06:21.134Z,2.10
2023-02-15T03:08:55.769Z,2.06
2023-02-15T03:11:24.939Z,2.03
2023-02-15T03:13:53.941Z,1.99
2023-02-15T03:16:29.237Z,1.88
2023-02-15T03:19:16.246Z,1.77
2023-02-15T03:21:59.227Z,1.72
2023-02-15T03:24:49.254Z,1.70
2023-02-15T03:27:24.213Z,1.67
2023-02-15T03:29:59.630Z,1.75
2023-02-15T03:32:31.465Z,1.80
2023-02-15T03:35:01.537Z,1.81
2023-02-15T03:38:00.566Z,1.82
2023-02-15T03:40:57.739Z,1.73
2023-02-15T03:43:39.767Z,1.71
2023-02-15T03:46:29.567Z,1.74
2023-02-15T03:49:19.054Z,1.74
2023-02-15T03:51:50.347Z,1.72
2023-02-15T03:54:44.394Z,1.75
2023-02-15T03:57:41.576Z,1.76
2023-02-15T04:00:41.182Z,1.66
2023-02-15T04:03:46.817Z,1.54
2023-02-15T04:06:16.038Z,1.41
2023-02-15T04:09:03.321Z,1.36
2023-02-15T04:11:32.094Z,1.29
2023-02-15T04:14:21.409Z,1.26
2023-02-15T04:16:51.102Z,1.19
2023-02-15T04:19:39.428Z,1.20
2023-02-15T04:22:26.760Z,1.17
2023-02-15T04:25:13.871Z,1.08
2023-02-15T04:27:45.127Z,1.08
2023-02-15T04:30:16.240Z,1.09
2023-02-15T04:32:45.130Z,1.03
2023-02-15T04:35:14.605Z,0.97
2023-02-15T04:37:44.503Z,0.93
2023-02-15T04:40:19.081Z,1.06
2023-02-15T04:42:51.464Z,1.19
2023-02-15T04:45:20.647Z,1.28
2023-02-15T04:47:49.422Z,1.26
2023-02-15T04:50:18.352Z,1.16
2023-02-15T04:52:47.078Z,1.15
2023-02-15T04:55:15.860Z,1.18
2023-02-15T04:57:44.949Z,1.29
2023-02-15T05:00:14.271Z,1.45
2023-02-15T05:02:43.124Z,1.53
2023-02-15T05:05:14.332Z,1.53
2023-02-15T05:07:43.111Z,1.50
2023-02-15T05:10:12.113Z,1.45
2023-02-15T05:12:41.152Z,1.49
2023-02-15T05:15:10.175Z,1.55
2023-02-15T05:17:39.028Z,1.56
2023-02-15T05:20:08.463Z,1.46
2023-02-15T05:22:37.008Z,1.41
2023-02-15T05:25:24.419Z,1.38
2023-02-15T05:28:12.209Z,1.34
2023-02-15T05:30:41.608Z,1.38
2023-02-15T05:33:11.051Z,1.45
2023-02-15T05:35:40.657Z,1.47
2023-02-15T05:38:10.065Z,1.42
2023-02-15T05:40:39.545Z,1.37
2023-02-15T05:43:08.376Z,1.36
2023-02-15T05:45:37.426Z,1.36
2023-02-15T05:48:06.897Z,1.32
2023-02-15T05:50:36.135Z,1.22
2023-02-15T05:53:05.362Z,1.13
2023-02-15T05:55:34.464Z,1.09
2023-02-15T05:58:03.452Z,0.94
2023-02-15T06:00:33.202Z,0.92
2023-02-15T06:03:02.464Z,0.87
2023-02-15T06:05:31.769Z,0.85
2023-02-15T06:08:00.540Z,0.84
2023-02-15T06:10:29.729Z,0.84
2023-02-15T06:12:58.624Z,0.82
2023-02-15T06:15:27.870Z,0.78
2023-02-15T06:17:56.660Z,0.76
2023-02-15T06:20:25.710Z,0.67
2023-02-15T06:22:54.655Z,0.70
2023-02-15T06:25:23.771Z,0.72
2023-02-15T06:27:52.569Z,0.74
2023-02-15T06:30:21.717Z,0.85
2023-02-15T06:32:50.570Z,0.90
2023-02-15T06:35:19.861Z,0.92
2023-02-15T06:37:49.097Z,0.93
2023-02-15T06:40:18.004Z,0.93
2023-02-15T06:42:47.593Z,1.15
2023-02-15T06:45:16.752Z,2.13
2023-02-15T06:47:45.811Z,3.26
2023-02-15T06:50:14.787Z,4.29
2023-02-15T06:52:43.788Z,5.28
2023-02-15T06:55:12.675Z,6.08
2023-02-15T06:57:42.791Z,6.70
2023-02-15T07:00:13.288Z,7.33
2023-02-15T07:02:43.782Z,8.04
2023-02-15T07:05:13.032Z,8.75
2023-02-15T07:07:41.855Z,9.31
2023-02-15T07:10:10.707Z,9.78
2023-02-15T07:12:48.748Z,10.34
2023-02-15T07:15:22.211Z,10.90
2023-02-15T07:17:51.922Z,11.43
2023-02-15T07:20:22.909Z,12.01
2023-02-15T07:22:52.625Z,12.59
2023-02-15T07:25:21.766Z,13.16
2023-02-15T07:27:56.636Z,13.63
2023-02-15T07:30:26.129Z,14.00
2023-02-15T07:33:18.255Z,14.42
2023-02-15T07:35:56.556Z,14.84
2023-02-15T07:38:27.566Z,15.43
2023-02-15T07:41:03.469Z,15.96
2023-02-15T07:43:36.550Z,16.37
2023-02-15T07:46:13.239Z,16.97
2023-02-15T07:48:44.693Z,17.28
2023-02-15T07:51:16.393Z,17.86
2023-02-15T07:53:46.227Z,18.43
2023-02-15T07:56:16.441Z,18.95
2023-02-15T07:58:57.495Z,19.32
2023-02-15T08:01:29.532Z,19.70
2023-02-15T08:03:59.780Z,20.18
2023-02-15T08:06:32.054Z,20.62
2023-02-15T08:09:02.536Z,21.07
2023-02-15T08:11:34.999Z,21.57
2023-02-15T08:14:19.712Z,22.03
2023-02-15T08:16:57.630Z,22.41
2023-02-15T08:19:34.709Z,22.72
2023-02-15T08:22:06.681Z,22.99
2023-02-15T08:24:38.825Z,23.60
2023-02-15T08:27:10.409Z,24.11
2023-02-15T08:29:41.001Z,24.63
2023-02-15T08:32:13.430Z,24.79
2023-02-15T08:34:43.820Z,25.18
2023-02-15T08:37:13.180Z,25.69
2023-02-15T08:39:44.392Z,26.11
2023-02-15T08:42:13.462Z,26.48
2023-02-15T08:44:42.592Z,26.88
2023-02-15T08:47:12.108Z,27.20
2023-02-15T08:49:41.580Z,27.53
2023-02-15T08:52:12.687Z,27.87
2023-02-15T08:54:42.016Z,28.25
2023-02-15T08:57:11.745Z,28.53
2023-02-15T08:59:41.535Z,29.09
2023-02-15T09:02:12.854Z,29.17
2023-02-15T09:04:41.837Z,29.47
2023-02-15T09:07:11.406Z,29.79
2023-02-15T09:09:40.787Z,29.96
2023-02-15T09:12:10.769Z,30.30
2023-02-15T09:14:40.802Z,30.78
2023-02-15T09:17:10.058Z,30.88
2023-02-15T09:19:39.260Z,31.47
2023-02-15T09:22:08.497Z,31.88
2023-02-15T09:24:37.325Z,32.06
2023-02-15T09:27:06.155Z,32.38
2023-02-15T09:29:35.826Z,32.58
2023-02-15T09:32:05.335Z,32.74
2023-02-15T09:34:35.207Z,33.11
2023-02-15T09:37:04.228Z,33.37
2023-02-15T09:39:33.718Z,33.45
2023-02-15T09:42:12.737Z,33.98
2023-02-15T09:45:05.811Z,34.24
2023-02-15T09:47:53.316Z,34.32
2023-02-15T09:50:57.088Z,34.82
2023-02-15T09:53:48.219Z,34.64
2023-02-15T09:56:32.655Z,34.90
2023-02-15T09:59:17.555Z,35.50
2023-02-15T10:02:17.691Z,35.75
2023-02-15T10:05:21.176Z,35.77
2023-02-15T10:07:56.814Z,35.90
2023-02-15T10:10:46.596Z,36.08
2023-02-15T10:13:25.484Z,36.38
2023-02-15T10:16:03.259Z,36.63
2023-02-15T10:18:55.176Z,37.02
2023-02-15T10:22:01.616Z,37.26
2023-02-15T10:24:46.544Z,37.31
2023-02-15T10:27:23.459Z,37.54
2023-02-15T10:30:12.227Z,37.86
2023-02-15T10:33:02.296Z,37.99
2023-02-15T10:35:46.500Z,38.14
2023-02-15T10:38:42.960Z,38.45
2023-02-15T10:41:31.384Z,38.63
2023-02-15T10:44:20.603Z,38.85
2023-02-15T10:47:27.284Z,39.01
2023-02-15T10:50:29.657Z,39.26
2023-02-15T10:53:30.045Z,39.46
2023-02-15T10:56:05.271Z,39.61
2023-02-15T10:58:58.819Z,39.65
2023-02-15T11:01:42.480Z,39.58
2023-02-15T11:04:54.844Z,40.25
2023-02-15T11:07:35.076Z,40.71
2023-02-15T11:10:18.163Z,41.15
2023-02-15T11:12:49.677Z,41.26
2023-02-15T11:15:27.722Z,41.23
2023-02-15T11:18:27.604Z,41.14
2023-02-15T11:21:11.429Z,40.96
2023-02-15T11:23:48.650Z,40.98
2023-02-15T11:26:58.645Z,40.91
2023-02-15T11:29:42.849Z,40.78
2023-02-15T11:32:26.417Z,40.75
2023-02-15T11:35:15.550Z,40.90
2023-02-15T11:37:53.267Z,40.81
2023-02-15T11:40:26.784Z,40.80
2023-02-15T11:43:06.089Z,41.12
2023-02-15T11:45:36.687Z,40.70
2023-02-15T11:48:13.081Z,40.95
2023-02-15T11:50:44.022Z,40.85
2023-02-15T11:53:19.439Z,40.92
2023-02-15T11:55:52.948Z,40.74
2023-02-15T11:58:50.356Z,41.08
2023-02-15T12:01:44.251Z,41.09
2023-02-15T12:04:16.784Z,41.27
2023-02-15T12:06:54.050Z,41.50
2023-02-15T12:09:45.497Z,41.73
2023-02-15T12:12:33.779Z,41.75
2023-02-15T12:15:10.111Z,41.65
2023-02-15T12:17:59.074Z,41.82
2023-02-15T12:20:34.511Z,41.95
2023-02-15T12:23:09.062Z,42.24
2023-02-15T12:25:59.829Z,42.42
2023-02-15T12:29:00.007Z,42.42
2023-02-15T12:31:40.672Z,42.32
2023-02-15T12:34:34.012Z,42.43
2023-02-15T12:37:17.760Z,42.51
2023-02-15T12:39:57.063Z,42.51
2023-02-15T12:42:32.102Z,42.55
2023-02-15T12:45:05.168Z,42.60
2023-02-15T12:47:34.429Z,42.64
2023-02-15T12:50:18.264Z,42.54
2023-02-15T12:52:50.707Z,42.48
2023-02-15T12:55:32.721Z,42.43
2023-02-15T12:58:09.410Z,42.47
2023-02-15T13:00:38.516Z,42.50
2023-02-15T13:03:19.889Z,42.70
2023-02-15T13:05:58.408Z,42.61
2023-02-15T13:08:36.648Z,42.39
2023-02-15T13:11:12.002Z,42.23
2023-02-15T13:14:01.126Z,42.17
2023-02-15T13:16:41.373Z,42.12
2023-02-15T13:19:18.836Z,42.34
2023-02-15T13:21:51.921Z,42.18
2023-02-15T13:24:34.161Z,42.25
2023-02-15T13:27:15.064Z,42.00
2023-02-15T13:29:48.747Z,41.83
2023-02-15T13:32:38.581Z,41.54
2023-02-15T13:35:15.604Z,41.19
2023-02-15T13:38:00.581Z,41.08
2023-02-15T13:40:39.430Z,40.88
2023-02-15T13:43:29.251Z,40.88
2023-02-15T13:46:04.933Z,40.62
2023-02-15T13:48:56.943Z,40.48
2023-02-15T13:51:41.081Z,40.16
2023-02-15T13:54:22.519Z,39.97
2023-02-15T13:57:01.985Z,39.69
2023-02-15T14:00:00.968Z,39.36
2023-02-15T14:03:00.804Z,39.33
2023-02-15T14:05:47.956Z,39.28
2023-02-15T14:08:41.074Z,38.96
2023-02-15T14:11:34.211Z,38.64
2023-02-15T14:14:13.302Z,38.62
2023-02-15T14:17:20.417Z,38.58
2023-02-15T14:19:56.503Z,38.75
2023-02-15T14:22:31.380Z,38.79
2023-02-15T14:25:22.407Z,38.64
2023-02-15T14:28:03.549Z,38.25
2023-02-15T14:30:49.987Z,38.27
2023-02-15T14:33:37.017Z,37.94
2023-02-15T14:36:10.038Z,37.67
2023-02-15T14:39:35.436Z,37.51
2023-02-15T14:42:29.976Z,37.27
2023-02-15T14:45:09.296Z,37.24
2023-02-15T14:48:02.909Z,37.10
2023-02-15T14:50:32.130Z,36.87
2023-02-15T14:53:32.185Z,36.74
2023-02-15T14:56:24.956Z,36.50
2023-02-15T14:58:54.230Z,36.36
2023-02-15T15:01:39.006Z,36.24
2023-02-15T15:04:15.228Z,36.04
2023-02-15T15:06:45.552Z,35.94
2023-02-15T15:09:28.160Z,35.73
2023-02-15T15:12:24.337Z,35.47
2023-02-15T15:14:55.617Z,35.19
2023-02-15T15:17:39.798Z,35.01
2023-02-15T15:20:43.492Z,34.77
2023-02-15T15:23:22.537Z,34.51
2023-02-15T15:26:00.921Z,34.26
2023-02-15T15:28:36.731Z,33.83
2023-02-15T15:31:22.554Z,33.50
2023-02-15T15:34:25.378Z,33.26
2023-02-15T15:37:26.993Z,32.80
2023-02-15T15:40:10.587Z,32.48
2023-02-15T15:43:01.910Z,32.16
2023-02-15T15:46:03.494Z,31.69
2023-02-15T15:48:34.006Z,31.27
2023-02-15T15:51:13.586Z,30.99
2023-02-15T15:53:49.986Z,30.63
2023-02-15T15:56:33.061Z,30.36
2023-02-15T15:59:08.663Z,30.03
2023-02-15T16:01:45.491Z,29.71
2023-02-15T16:04:28.132Z,29.24
2023-02-15T16:07:22.347Z,28.79
2023-02-15T16:10:03.504Z,28.33
2023-02-15T16:12:37.358Z,28.07
2023-02-15T16:15:37.161Z,27.77
2023-02-15T16:18:07.581Z,27.44
2023-02-15T16:20:38.658Z,27.30
2023-02-15T16:23:25.978Z,26.96
2023-02-15T16:26:14.420Z,26.40
2023-02-15T16:28:53.141Z,25.73
2023-02-15T16:31:24.053Z,24.97
2023-02-15T16:33:57.064Z,24.22
2023-02-15T16:36:28.727Z,23.41
2023-02-15T16:38:57.948Z,22.83
2023-02-15T16:41:29.544Z,22.35
2023-02-15T16:44:03.049Z,21.74
2023-02-15T16:46:38.390Z,21.22
2023-02-15T16:49:17.836Z,20.64
2023-02-15T16:51:57.358Z,20.08
2023-02-15T16:54:28.737Z,19.48
2023-02-15T16:56:58.856Z,19.10
2023-02-15T16:59:45.135Z,18.88
2023-02-15T17:02:40.226Z,18.62
2023-02-15T17:05:20.792Z,18.36
2023-02-15T17:07:51.992Z,18.09
2023-02-15T17:10:37.799Z,17.87
2023-02-15T17:13:15.423Z,17.60
2023-02-15T17:16:06.193Z,17.41
2023-02-15T17:18:38.722Z,17.21
2023-02-15T17:21:17.990Z,17.02
2023-02-15T17:23:50.235Z,16.80
2023-02-15T17:26:24.383Z,16.58
2023-02-15T17:29:04.302Z,16.41
2023-02-15T17:31:35.336Z,16.23
2023-02-15T17:34:06.040Z,16.06
2023-02-15T17:36:34.922Z,15.88
2023-02-15T17:39:22.179Z,15.69
2023-02-15T17:41:55.009Z,15.43
2023-02-15T17:44:25.371Z,15.27
2023-02-15T17:46:55.320Z,15.15
2023-02-15T17:49:35.305Z,15.05
2023-02-15T17:52:05.337Z,14.95
2023-02-15T17:54:53.577Z,14.87
2023-02-15T17:57:23.184Z,14.72
2023-02-15T18:00:10.788Z,14.66
2023-02-15T18:02:59.676Z,14.49
2023-02-15T18:05:48.717Z,14.29
2023-02-15T18:08:43.276Z,14.18
2023-02-15T18:11:33.482Z,14.06
2023-02-15T18:14:04.193Z,13.94
2023-02-15T18:16:42.333Z,13.88
2023-02-15T18:19:20.332Z,13.75
2023-02-15T18:21:50.719Z,13.66
2023-02-15T18:24:27.062Z,13.59
2023-02-15T18:26:57.989Z,13.48
2023-02-15T18:29:26.952Z,13.35
2023-02-15T18:31:58.754Z,13.31
2023-02-15T18:34:33.605Z,13.24
2023-02-15T18:37:07.120Z,13.16
2023-02-15T18:39:47.217Z,13.03
2023-02-15T18:42:32.087Z,12.96
2023-02-15T18:45:33.159Z,12.97
2023-02-15T18:48:03.088Z,12.91
2023-02-15T18:50:37.593Z,12.91
2023-02-15T18:53:12.773Z,12.86
2023-02-15T18:55:41.989Z,12.68
2023-02-15T18:58:20.724Z,12.66
2023-02-15T19:00:50.286Z,12.47
2023-02-15T19:03:19.400Z,12.42
2023-02-15T19:05:48.328Z,12.45
2023-02-15T19:08:22.660Z,12.42
2023-02-15T19:10:53.151Z,12.34
2023-02-15T19:13:23.203Z,12.34
2023-02-15T19:15:52.977Z,12.34
2023-02-15T19:18:22.341Z,12.37
2023-02-15T19:20:51.356Z,12.28
2023-02-15T19:23:24.002Z,12.18
2023-02-15T19:25:54.776Z,12.12
2023-02-15T19:28:35.131Z,12.11
2023-02-15T19:31:05.498Z,12.10
2023-02-15T19:33:35.861Z,12.06
2023-02-15T19:36:07.743Z,11.97
2023-02-15T19:38:37.379Z,11.84
2023-02-15T19:41:09.491Z,11.79
2023-02-15T19:43:39.011Z,11.76
2023-02-15T19:46:19.447Z,11.72
2023-02-15T19:48:52.492Z,11.66
2023-02-15T19:51:26.895Z,11.64
2023-02-15T19:53:58.215Z,11.66
2023-02-15T19:56:28.777Z,11.69
2023-02-15T19:58:58.570Z,11.59
2023-02-15T20:01:27.633Z,11.54
2023-02-15T20:03:56.767Z,11.48
2023-02-15T20:06:25.759Z,11.47
2023-02-15T20:08:56.564Z,11.41
2023-02-15T20:11:25.948Z,11.23
2023-02-15T20:13:55.046Z,11.15
2023-02-15T20:16:26.188Z,11.09
2023-02-15T20:18:55.557Z,10.97
2023-02-15T20:21:24.469Z,10.86
2023-02-15T20:23:53.627Z,10.77
2023-02-15T20:26:25.516Z,10.69
2023-02-15T20:28:54.557Z,10.61
2023-02-15T20:31:26.163Z,10.55
2023-02-15T20:33:55.713Z,10.49
2023-02-15T20:36:26.263Z,10.40
2023-02-15T20:38:57.729Z,10.35
2023-02-15T20:41:48.447Z,10.34
2023-02-15T20:44:35.545Z,10.35
2023-02-15T20:47:05.487Z,10.25
2023-02-15T20:49:35.939Z,10.19
2023-02-15T20:52:19.791Z,10.13
2023-02-15T20:54:49.935Z,9.97
2023-02-15T20:57:19.710Z,9.89
2023-02-15T20:59:50.020Z,9.76
2023-02-15T21:02:25.522Z,9.69
2023-02-15T21:04:56.247Z,9.64
2023-02-15T21:07:26.142Z,9.56
2023-02-15T21:09:56.474Z,9.45
2023-02-15T21:12:26.338Z,9.38
2023-02-15T21:14:55.622Z,9.36
2023-02-15T21:17:24.740Z,9.31
2023-02-15T21:19:54.225Z,9.24
2023-02-15T21:22:24.680Z,9.10
2023-02-15T21:24:55.407Z,9.02
2023-02-15T21:27:24.757Z,9.10
2023-02-15T21:29:53.390Z,9.13
2023-02-15T21:32:23.631Z,9.02
2023-02-15T21:34:52.644Z,8.97
2023-02-15T21:37:36.075Z,8.94
2023-02-15T21:40:07.780Z,8.81
2023-02-15T21:42:55.568Z,8.68
2023-02-15T21:45:43.345Z,8.56
2023-02-15T21:48:13.126Z,8.49
2023-02-15T21:51:02.057Z,8.43
2023-02-15T21:53:37.438Z,8.41
2023-02-15T21:56:11.431Z,8.43
2023-02-15T21:58:40.635Z,8.43
2023-02-15T22:01:23.236Z,8.40
2023-02-15T22:03:55.842Z,8.21
2023-02-15T22:06:25.004Z,8.12
2023-02-15T22:08:54.168Z,8.01
2023-02-15T22:11:23.626Z,7.96
2023-02-15T22:13:52.656Z,7.97
2023-02-15T22:16:23.371Z,7.94
2023-02-15T22:18:52.559Z,7.92
2023-02-15T22:21:22.029Z,7.86
2023-02-15T22:23:52.034Z,7.76
2023-02-15T22:26:25.435Z,7.61
2023-02-15T22:28:55.069Z,7.43
2023-02-15T22:31:24.260Z,7.23
2023-02-15T22:33:55.539Z,7.13
2023-02-15T22:36:29.987Z,7.09
2023-02-15T22:38:58.620Z,7.08
2023-02-15T22:41:30.823Z,7.13
2023-02-15T22:44:00.480Z,7.14
2023-02-15T22:46:29.292Z,7.19
2023-02-15T22:48:58.384Z,7.18
2023-02-15T22:51:27.315Z,7.18
2023-02-15T22:53:56.591Z,7.16
2023-02-15T22:56:37.476Z,7.18
2023-02-15T22:59:20.706Z,7.14
2023-02-15T23:01:49.590Z,7.15
2023-02-15T23:04:21.295Z,7.24
2023-02-15T23:06:50.504Z,7.19
2023-02-15T23:09:20.404Z,7.02
2023-02-15T23:11:51.914Z,6.86
2023-02-15T23:14:32.782Z,6.70
2023-02-15T23:17:02.796Z,6.54
2023-02-15T23:19:31.897Z,6.45
2023-02-15T23:22:00.666Z,6.40
2023-02-15T23:24:31.727Z,6.34
2023-02-15T23:27:20.692Z,6.25
2023-02-15T23:29:49.162Z,6.18
2023-02-15T23:32:18.304Z,6.27
2023-02-15T23:34:47.142Z,6.33
2023-02-15T23:37:17.526Z,6.32
2023-02-15T23:40:04.968Z,6.30
2023-02-15T23:42:36.565Z,6.25
2023-02-15T23:45:17.577Z,6.20
2023-02-15T23:48:07.228Z,6.15
2023-02-15T23:50:35.927Z,5.86
2023-02-15T23:53:05.075Z,5.81
2023-02-15T23:55:44.129Z,5.80
2023-02-15T23:58:17.826Z,5.66
